Hawley, PA (18428)

11:52 AM EST on February 08, 2016 (GMT -0500)
Spinnlers Point | | Change Station
CLOSE
Current Station
Personal Weather Station
Location: Tafton, PA
Elevation: 1234 ft
Nearby Weather Stations

Elev 1234 ft 41.43 °N, 75.19 °W | Updated 5 seconds ago

Overcast
Overcast
35.6 °F
Feels Like 31 °F
N
6.0
Wind Variable Wind from NW
Gusts 10.7 mph

Today
High -- | Low -- °F
--% Chance of Precip.
Yesterday
High -- | Low -- °F
Precip. -- in
Pressure 29.79 in
Visibility 10.0 miles
Clouds Overcast 1700 ft
Windchill 31 °F
Dew Point 15 °F
Humidity 42%
Rainfall 0.00 in
Snow Depth Not available.
7:05 AM 5:25 PM
New Moon, 0% visible
METAR KMPO 081553Z AUTO 08007KT 10SM OVC017 M01/M06 A2973 RMK AO2 SLP088 T10061056
Pressure 29.79 in
Visibility 10.0 miles
Clouds Overcast 1700 ft
Windchill 31 °F
Dew Point 15 °F
Humidity 42%
Rainfall 0.00 in
Snow Depth Not available.
7:05 AM 5:25 PM
New Moon, 0% visible
METAR KMPO 081553Z AUTO 08007KT 10SM OVC017 M01/M06 A2973 RMK AO2 SLP088 T10061056

10-Day Weather Forecast

Almanac

Astronomy

Feb. 08, 2016 Rise Set
Actual Time
Civil Twilight
Nautical Twilight
Astronomical Twilight
Moon
Length of Visible Light
Length of Day
Tomorrow will be .
, % of the Moon is Illuminated

Today's Extremes

State Highs State Lows

Community

WunderPhotos

Upload Photos

1,891,462 photos uploaded!

WunderBlog® & News

Nearby

Air Quality

  Air Quality AQ Index Pollutant
Not available.

Snow Depth

Station Depth Elevation

Earthquake Activity

City Distance Mag. Time & Date
Minimum magnitude displayed is 2.5.

Coastal Water Temperatures

Place Temperature

Stations

Nearby Weather Stations

Station Location Temp. Windchill Dew Point Humidity Wind Precip. Elev Updated Type
                   

Watches & Warnings

There are currently no watches in effect.